Portada
METAR-TAF:

METAR-TAF

Aeropuertos :

Fuerteventura, España

Aeropuerto de Fuerteventura

latitud: 28-27N, longitud: 013-52W, altitud: 22 m

Observación

El informe se hizo hace 25 minutos, a las 06:00 UTC
Viento 11 kt del norte
Temperatura 17°C
Humedad 68%
Presión 1024 hPa
Visibilidad 10 km o más
Escasas nubes a una altura de 3200 ft
Cielo nuboso a una altura de 4500 ft

METAR: GCFV 190600Z 36011KT 9999 FEW032 BKN045 17/11 Q1024

Hora: 06:25 (06:25 UTC)

Pronóstico

El informe se hizo hace 4 horas y 25 minutos, a las 02:00 UTC
Pronóstico válido del 19 a las 03 UTC al 20 a las 03 UTC
Viento 9 kt del norte-noroeste
Visibilidad 10 km o más
Nubes dispersas a una altura de 3500 ft
Evolucionando progresivamente
del 19 a las 09 UTC al 19 a las 11 UTC
Viento 15 kt del noreste

TAF: GCFV 190200Z 1903/2003 34009KT 9999 SCT035 TX21/1914Z TN15/1906Z BECMG 1909/1911 04015KT

Observaciones y pronósticos meteorológicos de más de 4000 aeropuertos (mensajes METAR y TAF).

Los puntos amarillos y rojos representan las estaciones disponibles.

Ponga el ratón en el punto deseado para ver el nombre de la estación.

Haga clic para ver las observaciones y los pronósticos meteorológicos.

Para cambiar el mapa : haga clic en los botones verdes con una cruz de color negro para hacer un zoom, en el botón verde con un guión para alejar o en las flechas verdes para mapas adyacentes.


METAR-TAF: